Time;durP1;ratioP1;P1;durP2;ratioP2;P2;SDS_P1;SDS_P2;PMS_P1;PMS_P2;Temp;Humidity;BMP_temperature;BMP_pressure;BME280_temperature;BME280_humidity;BME280_pressure;Samples;Min_cycle;Max_cycle;Signal;HPM_P1;HPM_P2
2022/12/24 00:01:49;;;;;;;0.73;0.22;;;11.10;99.90;;;;;;5075931;28;20455;-61
2022/12/24 00:04:16;;;;;;;1.20;0.30;;;11.10;99.90;;;;;;5075477;28;20503;-61
2022/12/24 00:06:43;;;;;;;0.90;0.30;;;11.10;99.90;;;;;;5075661;28;20519;-60
2022/12/24 00:09:12;;;;;;;1.20;0.40;;;11.10;99.90;;;;;;5075771;28;20446;-61
2022/12/24 00:11:39;;;;;;;0.50;0.30;;;11.10;99.90;;;;;;5075359;28;20455;-61
2022/12/24 00:14:06;;;;;;;1.10;0.20;;;11.20;99.90;;;;;;5073892;28;20515;-61
2022/12/24 00:16:33;;;;;;;1.63;0.40;;;11.10;99.90;;;;;;5075422;28;20456;-61
2022/12/24 00:19:01;;;;;;;0.90;0.30;;;11.10;99.90;;;;;;5075580;28;20471;-61
2022/12/24 00:21:28;;;;;;;0.98;0.30;;;11.10;99.90;;;;;;5075975;28;20759;-61
2022/12/24 00:23:55;;;;;;;0.70;0.30;;;11.10;99.90;;;;;;5073889;28;20451;-61
2022/12/24 00:26:24;;;;;;;1.80;0.30;;;11.10;99.90;;;;;;5073476;28;20797;-61
2022/12/24 00:28:51;;;;;;;0.77;0.30;;;11.10;99.90;;;;;;5073940;28;20886;-61
2022/12/24 00:31:19;;;;;;;0.95;0.30;;;11.10;99.90;;;;;;5073690;28;20427;-61
2022/12/24 00:33:47;;;;;;;0.50;0.20;;;11.10;99.90;;;;;;5073267;28;20532;-61
2022/12/24 00:36:15;;;;;;;1.10;0.30;;;11.10;99.90;;;;;;5073158;28;20848;-61
2022/12/24 00:38:43;;;;;;;0.55;0.20;;;11.10;99.90;;;;;;5075286;28;20423;-61
2022/12/24 00:41:23;;;;;;;1.38;0.30;;;11.00;99.90;;;;;;5074601;28;20525;-61
2022/12/24 00:43:52;;;;;;;1.60;0.30;;;11.00;99.90;;;;;;5075311;28;20412;-60
2022/12/24 00:46:20;;;;;;;0.90;0.30;;;11.00;99.90;;;;;;5067530;28;20506;-61
2022/12/24 00:48:47;;;;;;;0.70;0.30;;;11.00;99.90;;;;;;5075708;28;20502;-60
2022/12/24 00:51:14;;;;;;;1.70;0.20;;;11.00;99.90;;;;;;5075919;28;20459;-60
2022/12/24 00:53:42;;;;;;;0.82;0.30;;;10.90;99.90;;;;;;5074760;28;20470;-60
2022/12/24 00:56:09;;;;;;;0.90;0.30;;;10.90;99.90;;;;;;5075194;28;20490;-61
2022/12/24 00:58:37;;;;;;;1.40;0.30;;;10.90;99.90;;;;;;5074164;28;20463;-60
2022/12/24 01:01:06;;;;;;;1.00;0.30;;;10.80;99.90;;;;;;5072844;28;20455;-60
2022/12/24 01:03:36;;;;;;;1.50;0.40;;;10.90;99.90;;;;;;5073757;28;20506;-61
2022/12/24 01:06:03;;;;;;;1.20;0.30;;;10.80;99.90;;;;;;5074497;28;20968;-62
2022/12/24 01:08:30;;;;;;;2.20;0.30;;;10.80;99.90;;;;;;5074865;28;20416;-60
2022/12/24 01:10:58;;;;;;;1.58;0.30;;;10.80;99.90;;;;;;5074253;28;20682;-61
2022/12/24 01:13:26;;;;;;;1.30;0.30;;;10.90;99.90;;;;;;5072487;28;20866;-61
2022/12/24 01:15:53;;;;;;;1.20;0.30;;;10.90;99.90;;;;;;5074796;28;20916;-61
2022/12/24 01:18:22;;;;;;;1.00;0.30;;;11.00;99.90;;;;;;5066936;28;20506;-60
2022/12/24 01:20:57;;;;;;;1.13;0.30;;;11.00;99.90;;;;;;5074675;28;20518;-60
2022/12/24 01:23:24;;;;;;;1.70;0.30;;;11.00;99.90;;;;;;5075499;28;20827;-61
2022/12/24 01:25:51;;;;;;;0.82;0.30;;;11.00;99.90;;;;;;5075232;28;20427;-60
2022/12/24 01:28:19;;;;;;;1.23;0.30;;;11.10;99.90;;;;;;5074535;28;20428;-61
2022/12/24 01:30:46;;;;;;;1.60;0.40;;;11.10;99.90;;;;;;5075070;28;20459;-60
2022/12/24 01:33:13;;;;;;;1.85;0.30;;;11.10;99.90;;;;;;5074146;28;20787;-60
2022/12/24 01:35:43;;;;;;;0.77;0.40;;;11.10;99.90;;;;;;5075063;28;20431;-61
2022/12/24 01:38:11;;;;;;;2.20;0.30;;;11.10;99.90;;;;;;5074957;28;20503;-60
2022/12/24 01:43:27;;;;;;;1.20;0.30;;;11.10;99.90;;;;;;5074838;28;20450;-62
2022/12/24 01:45:55;;;;;;;1.80;0.30;;;11.00;99.90;;;;;;5075622;28;20522;-59
2022/12/24 01:48:31;;;;;;;1.30;0.30;;;11.00;99.90;;;;;;5074935;28;20466;-60
2022/12/24 01:51:06;;;;;;;2.10;0.30;;;11.00;99.90;;;;;;5075243;28;20530;-60
2022/12/24 01:53:36;;;;;;;1.60;0.30;;;11.00;99.90;;;;;;5074901;28;20416;-60
2022/12/24 01:56:04;;;;;;;1.92;0.40;;;11.00;99.90;;;;;;5074936;28;20808;-60
2022/12/24 01:58:34;;;;;;;1.70;0.40;;;10.90;99.90;;;;;;5074074;28;20498;-61
2022/12/24 02:01:01;;;;;;;1.67;0.32;;;10.90;99.90;;;;;;5074646;28;20474;-62
2022/12/24 02:03:28;;;;;;;1.70;0.40;;;10.80;99.90;;;;;;5074865;28;20498;-60
2022/12/24 02:05:58;;;;;;;0.98;0.30;;;10.80;99.90;;;;;;5074282;28;20481;-60
2022/12/24 02:08:38;;;;;;;2.00;0.40;;;10.70;99.90;;;;;;5073608;28;20511;-60
2022/12/24 02:11:11;;;;;;;3.72;0.40;;;10.60;99.90;;;;;;5074182;28;20861;-60
2022/12/24 02:13:39;;;;;;;1.80;0.50;;;10.60;99.90;;;;;;5072668;28;20443;-61
2022/12/24 02:16:17;;;;;;;1.77;0.30;;;10.60;99.90;;;;;;5072666;28;20522;-59
2022/12/24 02:18:53;;;;;;;2.00;0.40;;;10.60;99.90;;;;;;5073359;28;20726;-62
2022/12/24 02:21:46;;;;;;;1.40;0.30;;;10.60;99.90;;;;;;5074089;28;20764;-59
2022/12/24 02:24:52;;;;;;;1.40;0.30;;;10.40;99.90;;;;;;5073773;28;20412;-63
2022/12/24 02:27:34;;;;;;;1.63;0.40;;;10.30;99.90;;;;;;5072374;28;20538;-59
2022/12/24 02:30:13;;;;;;;2.28;0.40;;;10.30;99.90;;;;;;5074638;28;20522;-60
2022/12/24 02:33:05;;;;;;;2.00;0.40;;;10.20;99.90;;;;;;5074458;28;20439;-60
2022/12/24 02:35:41;;;;;;;1.50;0.30;;;10.30;99.90;;;;;;5060889;28;20428;-59
2022/12/24 02:38:14;;;;;;;1.85;0.40;;;10.20;99.90;;;;;;5074306;28;20786;-60
2022/12/24 02:40:47;;;;;;;1.90;0.40;;;10.20;99.90;;;;;;5074541;28;20455;-60
2022/12/24 02:43:20;;;;;;;2.72;0.50;;;10.20;99.90;;;;;;5074854;28;20427;-60
2022/12/24 02:45:54;;;;;;;1.40;0.40;;;10.20;99.90;;;;;;5073969;28;20435;-60
2022/12/24 02:48:25;;;;;;;2.70;0.40;;;10.20;99.90;;;;;;5074279;28;20631;-63
2022/12/24 02:50:57;;;;;;;1.88;0.40;;;10.20;99.90;;;;;;5073561;28;20427;-61
2022/12/24 02:53:24;;;;;;;1.00;0.30;;;10.10;99.90;;;;;;5073913;28;20415;-61
2022/12/24 02:56:12;;;;;;;2.70;0.50;;;10.10;99.90;;;;;;5073462;28;20442;-61
2022/12/24 02:58:52;;;;;;;3.00;0.60;;;10.00;99.90;;;;;;5074287;28;20470;-61
2022/12/24 03:01:34;;;;;;;2.17;0.50;;;10.00;99.90;;;;;;5068105;28;20503;-61
2022/12/24 03:04:11;;;;;;;1.50;0.43;;;10.00;99.90;;;;;;5078103;28;20514;-61
2022/12/24 03:06:44;;;;;;;2.55;0.40;;;9.90;99.90;;;;;;5076544;28;20458;-61
2022/12/24 03:09:20;;;;;;;1.40;0.40;;;10.00;99.90;;;;;;5078258;28;20803;-61
2022/12/24 03:11:55;;;;;;;1.58;0.40;;;10.00;99.90;;;;;;5078112;28;20419;-60
2022/12/24 03:14:23;;;;;;;1.98;0.40;;;10.00;99.90;;;;;;5076838;28;20904;-60
2022/12/24 03:16:52;;;;;;;1.80;0.33;;;10.00;99.90;;;;;;5077642;28;20462;-60
2022/12/24 03:19:21;;;;;;;1.20;0.40;;;10.10;99.90;;;;;;5077176;28;20492;-60
2022/12/24 03:21:49;;;;;;;0.88;0.30;;;10.10;99.90;;;;;;5077538;28;20514;-60
2022/12/24 03:24:17;;;;;;;1.48;0.40;;;10.20;99.90;;;;;;5077217;28;20488;-60
2022/12/24 03:26:46;;;;;;;2.30;0.40;;;10.20;99.90;;;;;;5076820;28;20503;-60
2022/12/24 03:29:13;;;;;;;2.85;0.40;;;10.20;99.90;;;;;;5077710;28;20427;-60
2022/12/24 03:31:42;;;;;;;1.38;0.40;;;10.30;99.90;;;;;;5077314;28;20894;-60
2022/12/24 03:34:13;;;;;;;1.70;0.40;;;10.30;99.90;;;;;;5076592;28;20734;-60
2022/12/24 03:36:41;;;;;;;1.60;0.40;;;10.30;99.90;;;;;;5077297;28;20476;-60
2022/12/24 03:39:09;;;;;;;1.10;0.30;;;10.40;99.90;;;;;;5077486;28;20477;-60
2022/12/24 03:41:36;;;;;;;2.75;0.40;;;10.30;99.90;;;;;;5077688;28;20407;-60
2022/12/24 03:44:04;;;;;;;1.90;0.40;;;10.30;99.90;;;;;;5077233;28;20511;-60
2022/12/24 03:46:31;;;;;;;1.50;0.40;;;10.30;99.90;;;;;;5077206;28;20454;-60
2022/12/24 03:48:58;;;;;;;1.45;0.40;;;10.40;99.90;;;;;;5077098;28;20458;-60
2022/12/24 03:51:28;;;;;;;2.63;0.40;;;10.30;99.90;;;;;;5077140;28;20451;-60
2022/12/24 03:53:56;;;;;;;2.00;0.30;;;10.30;99.90;;;;;;5076705;28;20420;-60
2022/12/24 03:56:24;;;;;;;1.70;0.38;;;10.30;99.90;;;;;;5077275;28;20518;-60
2022/12/24 03:58:52;;;;;;;1.98;0.30;;;10.30;99.90;;;;;;5077024;28;20503;-60
2022/12/24 04:01:19;;;;;;;3.00;0.50;;;10.30;99.90;;;;;;5068385;28;20447;-60
2022/12/24 04:03:46;;;;;;;1.73;0.30;;;10.30;99.90;;;;;;5077123;28;20502;-60
2022/12/24 04:06:16;;;;;;;1.90;0.40;;;10.30;99.90;;;;;;5076925;28;20767;-59
2022/12/24 04:08:45;;;;;;;3.20;1.00;;;10.30;99.90;;;;;;5076386;28;20857;-59
2022/12/24 04:11:14;;;;;;;1.63;0.50;;;10.20;99.90;;;;;;5076830;28;20518;-60
2022/12/24 04:13:42;;;;;;;3.15;0.40;;;10.20;99.90;;;;;;5075533;28;20804;-59
2022/12/24 04:16:11;;;;;;;0.90;0.40;;;10.20;99.90;;;;;;5076782;28;20431;-60
2022/12/24 04:18:39;;;;;;;2.90;0.40;;;10.20;99.90;;;;;;5076288;28;20473;-60
2022/12/24 04:21:10;;;;;;;1.27;0.40;;;10.20;99.90;;;;;;5076414;28;20470;-60
2022/12/24 04:23:40;;;;;;;1.90;0.30;;;10.20;99.90;;;;;;5076390;28;20455;-59
2022/12/24 04:26:11;;;;;;;2.35;0.40;;;10.10;99.90;;;;;;5076534;28;20511;-60
2022/12/24 04:28:39;;;;;;;0.82;0.30;;;10.10;99.90;;;;;;5075630;28;20463;-60
2022/12/24 04:31:08;;;;;;;1.30;0.40;;;10.10;99.90;;;;;;5076532;28;20452;-60
2022/12/24 04:33:36;;;;;;;1.85;0.57;;;10.10;99.90;;;;;;5074989;28;20824;-60
2022/12/24 04:36:05;;;;;;;1.48;0.50;;;10.00;99.90;;;;;;5074459;28;20527;-60
2022/12/24 04:38:33;;;;;;;1.90;0.50;;;10.00;99.90;;;;;;5074568;28;20498;-60
2022/12/24 04:41:01;;;;;;;2.13;0.37;;;10.00;99.90;;;;;;5074657;28;20522;-60
2022/12/24 04:43:30;;;;;;;3.00;0.40;;;10.00;99.90;;;;;;5074608;28;20473;-60
2022/12/24 04:46:03;;;;;;;1.20;0.35;;;10.00;99.90;;;;;;5074407;28;20451;-59
2022/12/24 04:48:30;;;;;;;1.90;0.40;;;10.00;99.90;;;;;;5076011;28;20458;-59
2022/12/24 04:50:58;;;;;;;1.10;0.30;;;10.10;99.90;;;;;;5075627;28;20853;-59
2022/12/24 04:53:25;;;;;;;1.48;0.30;;;10.10;99.90;;;;;;5075204;28;20497;-59
2022/12/24 04:55:52;;;;;;;0.80;0.40;;;10.10;99.90;;;;;;5075166;28;20605;-58
2022/12/24 04:58:19;;;;;;;2.00;0.40;;;10.10;99.90;;;;;;5075144;28;20510;-59
2022/12/24 05:00:48;;;;;;;2.25;0.40;;;10.10;99.90;;;;;;5075595;28;20522;-59
2022/12/24 05:03:15;;;;;;;1.42;0.40;;;10.10;99.90;;;;;;5075674;28;20462;-59
2022/12/24 05:05:43;;;;;;;2.40;0.40;;;10.10;99.90;;;;;;5074986;28;20451;-59
2022/12/24 05:08:10;;;;;;;1.00;0.30;;;10.10;99.90;;;;;;5075544;28;20854;-60
2022/12/24 05:10:37;;;;;;;1.27;0.30;;;10.10;99.90;;;;;;5074985;28;20466;-59
2022/12/24 05:13:04;;;;;;;1.80;0.40;;;10.10;99.90;;;;;;5073591;28;20463;-59
2022/12/24 05:15:32;;;;;;;1.30;0.30;;;10.10;99.90;;;;;;5073543;28;20485;-59
2022/12/24 05:18:00;;;;;;;2.00;0.40;;;10.10;99.90;;;;;;5073609;28;20450;-59
2022/12/24 05:20:27;;;;;;;2.70;0.50;;;10.00;99.90;;;;;;5073538;28;20921;-60
2022/12/24 05:28:25;;;;;;;1.42;0.40;;;10.00;99.90;;;;;;5075028;28;20443;-59
2022/12/24 05:30:52;;;;;;;2.10;0.50;;;10.00;99.90;;;;;;5074715;28;20455;-60
2022/12/24 05:33:20;;;;;;;2.80;0.60;;;10.00;99.90;;;;;;5075683;28;20419;-60
2022/12/24 05:35:48;;;;;;;1.00;0.40;;;10.10;99.90;;;;;;5075200;28;20753;-59
2022/12/24 05:38:15;;;;;;;1.17;0.40;;;10.10;99.90;;;;;;5074319;28;20863;-60
2022/12/24 05:40:42;;;;;;;1.67;0.40;;;10.10;99.90;;;;;;5074364;28;20444;-60
2022/12/24 05:43:10;;;;;;;1.50;0.30;;;10.10;99.90;;;;;;5074705;28;20805;-56
2022/12/24 05:45:38;;;;;;;1.70;0.30;;;10.10;99.90;;;;;;5074004;28;20513;-60
2022/12/24 05:48:07;;;;;;;1.65;0.40;;;10.10;99.90;;;;;;5074553;28;20511;-59
2022/12/24 05:50:39;;;;;;;1.80;0.40;;;10.10;99.90;;;;;;5073657;28;20464;-60
2022/12/24 05:53:06;;;;;;;2.08;0.45;;;10.10;99.90;;;;;;5074185;28;20455;-60
2022/12/24 05:55:34;;;;;;;2.38;0.45;;;10.10;99.90;;;;;;5073804;28;20909;-61
2022/12/24 05:58:01;;;;;;;1.25;0.40;;;10.00;99.90;;;;;;5074021;28;20502;-60
2022/12/24 06:00:29;;;;;;;3.10;0.40;;;10.00;99.90;;;;;;5075040;28;20458;-61
2022/12/24 06:02:56;;;;;;;1.30;0.40;;;9.90;99.90;;;;;;5073046;28;20788;-60
2022/12/24 06:05:23;;;;;;;2.40;0.50;;;9.90;99.90;;;;;;5073803;28;20485;-60
2022/12/24 06:07:52;;;;;;;1.80;0.30;;;9.90;99.90;;;;;;5073178;28;20515;-60
2022/12/24 06:10:19;;;;;;;1.70;0.40;;;9.90;99.90;;;;;;5074303;28;20419;-55
2022/12/24 06:12:46;;;;;;;1.53;0.40;;;9.80;99.90;;;;;;5073029;28;20423;-55
2022/12/24 06:15:14;;;;;;;1.23;0.30;;;9.80;99.90;;;;;;5073849;28;20732;-54
2022/12/24 06:17:42;;;;;;;1.80;0.40;;;9.90;99.90;;;;;;5074150;28;20518;-55
2022/12/24 06:20:10;;;;;;;1.60;0.30;;;9.80;99.90;;;;;;5074398;28;20443;-60
2022/12/24 06:22:37;;;;;;;1.40;0.40;;;9.80;99.90;;;;;;5074390;28;20498;-60
2022/12/24 06:25:07;;;;;;;1.50;0.32;;;9.80;99.90;;;;;;5074736;28;20510;-60
2022/12/24 06:27:37;;;;;;;2.13;0.40;;;9.80;99.90;;;;;;5074497;28;20733;-60
2022/12/24 06:30:05;;;;;;;2.47;0.70;;;9.70;99.90;;;;;;5074187;28;20416;-60
2022/12/24 06:32:32;;;;;;;1.95;0.40;;;9.70;99.90;;;;;;5072550;28;20420;-60
2022/12/24 06:35:00;;;;;;;2.80;0.40;;;9.70;99.90;;;;;;5074958;28;20501;-60
2022/12/24 06:37:30;;;;;;;2.95;0.40;;;9.60;99.90;;;;;;5076908;28;20459;-59
2022/12/24 06:39:58;;;;;;;2.15;0.40;;;9.60;99.90;;;;;;5077096;28;20423;-60
2022/12/24 06:42:26;;;;;;;1.83;0.40;;;9.60;99.90;;;;;;5076422;28;20450;-60
2022/12/24 06:44:53;;;;;;;1.90;0.50;;;9.60;99.90;;;;;;5076804;28;20459;-59
2022/12/24 06:47:21;;;;;;;1.50;0.60;;;9.60;99.90;;;;;;5087958;28;20415;-60
2022/12/24 06:49:48;;;;;;;2.95;0.55;;;9.60;99.90;;;;;;5091595;28;20528;-60
2022/12/24 06:52:15;;;;;;;3.13;0.50;;;9.60;99.90;;;;;;5089602;28;20946;-59
2022/12/24 06:54:42;;;;;;;2.50;0.40;;;9.60;99.90;;;;;;5076870;28;20510;-59
2022/12/24 06:57:10;;;;;;;1.60;0.43;;;9.60;99.90;;;;;;5077845;28;20501;-60
2022/12/24 06:59:38;;;;;;;2.40;0.50;;;9.60;99.90;;;;;;5076814;28;20463;-59
2022/12/24 07:02:06;;;;;;;3.17;0.50;;;9.70;99.90;;;;;;5076564;28;20918;-59
2022/12/24 07:04:34;;;;;;;2.35;0.35;;;9.70;99.90;;;;;;5077371;28;20477;-60
2022/12/24 07:07:01;;;;;;;1.60;0.40;;;9.70;99.90;;;;;;5076825;28;20894;-60
2022/12/24 07:09:28;;;;;;;1.35;0.40;;;9.70;99.90;;;;;;5077417;28;20423;-59
2022/12/24 07:11:55;;;;;;;1.60;0.40;;;9.70;99.90;;;;;;5077343;28;21054;-60
2022/12/24 07:14:22;;;;;;;2.17;0.40;;;9.70;99.90;;;;;;5076272;28;20529;-59
2022/12/24 07:16:51;;;;;;;3.00;0.50;;;9.70;99.90;;;;;;5077289;28;20474;-60
2022/12/24 07:19:20;;;;;;;1.90;0.50;;;9.70;99.90;;;;;;5077579;28;20424;-60
2022/12/24 07:21:48;;;;;;;1.30;0.50;;;9.70;99.90;;;;;;5077391;28;20428;-60
2022/12/24 07:24:16;;;;;;;2.10;0.55;;;9.70;99.90;;;;;;5077464;28;20434;-59
2022/12/24 07:26:43;;;;;;;0.85;0.40;;;9.70;99.90;;;;;;5077960;28;20514;-59
2022/12/24 07:29:10;;;;;;;2.28;0.50;;;9.70;99.90;;;;;;5076335;28;20498;-60
2022/12/24 07:31:38;;;;;;;2.30;0.60;;;9.60;99.90;;;;;;5075812;28;20510;-60
2022/12/24 07:34:06;;;;;;;2.83;0.50;;;9.60;99.90;;;;;;5077273;28;20850;-60
2022/12/24 07:36:34;;;;;;;1.50;0.40;;;9.60;99.90;;;;;;5076969;28;20546;-58
2022/12/24 07:39:01;;;;;;;2.20;0.50;;;9.60;99.90;;;;;;5077938;28;20515;-60
2022/12/24 07:41:28;;;;;;;2.15;0.40;;;9.60;99.90;;;;;;5075209;28;20462;-59
2022/12/24 07:43:55;;;;;;;0.90;0.40;;;9.70;99.90;;;;;;5075457;28;20506;-59
2022/12/24 07:46:22;;;;;;;2.20;1.00;;;9.70;99.90;;;;;;5074346;28;20486;-59
2022/12/24 07:48:50;;;;;;;1.63;0.40;;;9.70;99.90;;;;;;5075037;28;20498;-58
2022/12/24 07:51:19;;;;;;;0.95;0.40;;;9.70;99.90;;;;;;5073100;28;20455;-58
2022/12/24 07:53:47;;;;;;;2.00;0.50;;;9.70;99.90;;;;;;5075528;28;20466;-58
2022/12/24 07:56:15;;;;;;;2.80;0.60;;;9.70;99.90;;;;;;5073785;28;20431;-58
2022/12/24 07:58:42;;;;;;;1.75;0.50;;;9.80;99.90;;;;;;5072722;28;20497;-59
2022/12/24 08:01:10;;;;;;;1.30;0.50;;;9.80;99.90;;;;;;5075035;28;20879;-59
2022/12/24 08:03:37;;;;;;;2.60;0.50;;;9.90;99.90;;;;;;5074448;28;20481;-60
2022/12/24 08:06:06;;;;;;;3.78;0.60;;;9.90;99.90;;;;;;5075674;28;20455;-59
2022/12/24 08:08:35;;;;;;;2.55;0.55;;;10.10;99.90;;;;;;5075487;28;20431;-59
2022/12/24 08:11:03;;;;;;;1.38;0.50;;;10.10;99.90;;;;;;5074538;28;20527;-58
2022/12/24 08:13:31;;;;;;;2.08;0.60;;;10.10;99.90;;;;;;5076019;28;20652;-59
2022/12/24 08:15:59;;;;;;;1.58;0.60;;;10.10;99.90;;;;;;5075323;28;20475;-60
2022/12/24 08:18:26;;;;;;;3.30;0.60;;;10.20;99.90;;;;;;5075617;28;20538;-59
2022/12/24 08:20:53;;;;;;;2.28;0.50;;;10.10;99.90;;;;;;5077702;28;20431;-60
2022/12/24 08:23:21;;;;;;;2.55;0.50;;;10.10;99.90;;;;;;5075135;28;20534;-60
2022/12/24 08:25:49;;;;;;;4.00;0.60;;;10.00;99.90;;;;;;5074661;28;20474;-60
2022/12/24 08:28:19;;;;;;;2.47;0.50;;;10.00;99.90;;;;;;5075274;28;20526;-60
2022/12/24 08:30:48;;;;;;;2.90;0.60;;;10.00;99.90;;;;;;5074518;28;20526;-60
2022/12/24 08:33:15;;;;;;;2.80;0.70;;;10.00;99.90;;;;;;5074128;28;20506;-59
2022/12/24 08:35:48;;;;;;;2.38;0.60;;;9.90;99.90;;;;;;5072162;28;20934;-60
2022/12/24 08:38:15;;;;;;;1.20;0.50;;;9.90;99.90;;;;;;5073884;28;20415;-60
2022/12/24 08:40:43;;;;;;;1.85;0.80;;;9.90;99.90;;;;;;5072522;28;20522;-60
2022/12/24 08:43:11;;;;;;;2.25;0.65;;;10.00;99.90;;;;;;5071649;28;20504;-59
2022/12/24 08:45:39;;;;;;;2.00;0.60;;;10.00;99.90;;;;;;5072008;28;20790;-60
2022/12/24 08:48:07;;;;;;;2.90;0.60;;;10.00;99.90;;;;;;5073011;28;20422;-60
2022/12/24 08:50:34;;;;;;;3.10;0.60;;;9.90;99.90;;;;;;5072543;28;20954;-60
2022/12/24 08:53:02;;;;;;;2.83;0.60;;;9.80;99.90;;;;;;5074137;28;20510;-60
2022/12/24 08:55:29;;;;;;;3.92;0.60;;;9.80;99.90;;;;;;5071720;28;20792;-60
2022/12/24 08:57:56;;;;;;;2.00;0.70;;;9.80;99.90;;;;;;5072831;28;20518;-60
2022/12/24 09:00:25;;;;;;;2.60;0.80;;;9.80;99.90;;;;;;5072994;28;20490;-60
2022/12/24 09:02:52;;;;;;;2.88;0.70;;;9.80;99.90;;;;;;5074104;28;20514;-60
2022/12/24 09:05:19;;;;;;;3.17;0.70;;;9.90;99.90;;;;;;5073371;28;20793;-61
2022/12/24 09:07:47;;;;;;;1.80;0.50;;;9.80;99.90;;;;;;5073840;28;20507;-60
2022/12/24 09:10:14;;;;;;;0.80;0.40;;;9.90;99.90;;;;;;5071284;28;20923;-59
2022/12/24 09:12:41;;;;;;;0.93;0.40;;;9.80;99.90;;;;;;5070699;28;20460;-59
2022/12/24 09:15:13;;;;;;;1.80;0.60;;;9.90;99.90;;;;;;5069877;28;20493;-59
2022/12/24 09:17:42;;;;;;;1.00;0.40;;;9.90;99.90;;;;;;5072228;28;20439;-58
2022/12/24 09:20:10;;;;;;;1.87;0.50;;;10.00;99.90;;;;;;5072656;28;20420;-61
2022/12/24 09:22:39;;;;;;;1.70;0.55;;;10.10;99.90;;;;;;5070650;28;20539;-61
2022/12/24 09:25:07;;;;;;;1.48;0.80;;;10.10;99.90;;;;;;5072576;28;20498;-61
2022/12/24 09:27:35;;;;;;;1.08;0.50;;;10.20;99.90;;;;;;5072046;28;20462;-61
2022/12/24 09:30:02;;;;;;;1.97;0.50;;;10.20;99.90;;;;;;5072321;28;20911;-60
2022/12/24 09:32:29;;;;;;;2.97;0.50;;;10.20;99.90;;;;;;5073500;28;20511;-60
2022/12/24 09:34:58;;;;;;;2.42;0.50;;;10.30;99.90;;;;;;5072727;28;20532;-59
2022/12/24 09:37:25;;;;;;;1.40;0.40;;;10.20;99.90;;;;;;5072643;28;20467;-59
2022/12/24 09:39:52;;;;;;;4.80;0.60;;;10.30;99.90;;;;;;5070484;28;20821;-60
2022/12/24 09:42:28;;;;;;;2.30;0.50;;;10.30;99.90;;;;;;5072645;28;20515;-59
2022/12/24 09:45:02;;;;;;;2.40;0.50;;;10.30;99.90;;;;;;5072433;28;20438;-59
2022/12/24 09:47:34;;;;;;;1.40;0.40;;;10.30;99.90;;;;;;5051955;28;20509;-59
2022/12/24 09:50:13;;;;;;;2.83;0.50;;;10.30;99.90;;;;;;5051286;28;20424;-59
2022/12/24 09:52:42;;;;;;;2.30;0.50;;;10.30;99.90;;;;;;5051416;28;20453;-59
2022/12/24 09:55:20;;;;;;;2.00;0.70;;;10.20;99.90;;;;;;5066523;28;20544;-59
2022/12/24 09:57:50;;;;;;;2.50;0.40;;;10.30;99.90;;;;;;5068984;28;20464;-59
2022/12/24 10:00:21;;;;;;;1.58;0.50;;;10.30;99.90;;;;;;5070423;28;20534;-59
2022/12/24 10:02:48;;;;;;;3.03;0.50;;;10.40;99.90;;;;;;5060193;28;20429;-59
2022/12/24 10:05:23;;;;;;;2.10;0.50;;;10.40;99.90;;;;;;5067466;28;20546;-59
2022/12/24 10:07:59;;;;;;;1.70;0.50;;;10.50;99.90;;;;;;5076856;28;20502;-59
2022/12/24 10:10:35;;;;;;;2.45;0.50;;;10.60;99.90;;;;;;5065196;28;20474;-59
2022/12/24 10:13:11;;;;;;;1.70;0.50;;;10.60;99.90;;;;;;5070347;28;20475;-58
2022/12/24 10:15:46;;;;;;;2.13;0.55;;;10.60;99.90;;;;;;5059499;28;20799;-56
2022/12/24 10:18:27;;;;;;;1.10;0.50;;;10.70;99.90;;;;;;5071259;28;20525;-57
2022/12/24 10:21:04;;;;;;;4.77;0.50;;;10.70;99.90;;;;;;5055966;28;20439;-55
2022/12/24 10:23:37;;;;;;;1.17;0.40;;;10.70;99.90;;;;;;5071489;28;20455;-57
2022/12/24 10:26:12;;;;;;;2.15;0.50;;;10.70;99.90;;;;;;5070972;28;20510;-56
2022/12/24 10:28:47;;;;;;;2.03;0.57;;;10.70;99.90;;;;;;5070951;28;20517;-57
2022/12/24 10:31:14;;;;;;;2.72;0.50;;;10.80;99.90;;;;;;5072123;28;20467;-57
2022/12/24 10:33:44;;;;;;;1.40;0.50;;;10.90;99.90;;;;;;5069105;28;20419;-57
2022/12/24 10:36:17;;;;;;;3.17;0.55;;;10.90;99.90;;;;;;5070104;28;20876;-58
2022/12/24 10:38:45;;;;;;;2.65;0.50;;;10.80;99.90;;;;;;5070681;28;20463;-56
2022/12/24 10:41:14;;;;;;;1.60;0.70;;;10.80;99.90;;;;;;5070265;28;20543;-53
2022/12/24 10:43:43;;;;;;;4.90;1.57;;;10.80;99.90;;;;;;5070356;28;21079;-57
2022/12/24 10:46:19;;;;;;;3.10;0.60;;;10.90;99.90;;;;;;5069269;28;21097;-55
2022/12/24 10:48:52;;;;;;;3.10;0.50;;;10.90;99.90;;;;;;5069343;28;20422;-56
2022/12/24 10:51:28;;;;;;;2.45;0.50;;;10.90;99.90;;;;;;5070638;28;20515;-58
2022/12/24 10:54:00;;;;;;;1.98;0.60;;;11.00;99.90;;;;;;5069943;28;20948;-59
2022/12/24 10:56:28;;;;;;;2.25;0.50;;;11.10;99.90;;;;;;5069511;28;20431;-58
2022/12/24 10:58:55;;;;;;;1.77;0.60;;;11.20;99.90;;;;;;5071836;28;20428;-59
2022/12/24 11:01:44;;;;;;;2.72;0.60;;;11.40;99.90;;;;;;5071213;28;20526;-58
2022/12/24 11:04:17;;;;;;;2.67;0.57;;;11.40;99.90;;;;;;5071025;28;20428;-58
2022/12/24 11:06:57;;;;;;;2.10;0.50;;;11.50;99.90;;;;;;5069072;28;20672;-58
2022/12/24 11:09:27;;;;;;;4.22;0.60;;;11.60;99.90;;;;;;5071344;28;20502;-59
2022/12/24 11:11:56;;;;;;;1.90;0.50;;;11.60;99.90;;;;;;5070990;28;20493;-59
2022/12/24 11:14:24;;;;;;;3.15;0.60;;;11.60;99.90;;;;;;5081231;28;20918;-59
2022/12/24 11:16:54;;;;;;;2.70;0.50;;;11.70;99.90;;;;;;5070545;28;20470;-59
2022/12/24 11:19:29;;;;;;;2.03;0.50;;;11.60;99.90;;;;;;5069285;28;20451;-59
2022/12/24 11:22:03;;;;;;;3.08;0.50;;;11.60;99.90;;;;;;5073351;28;20466;-59
2022/12/24 11:24:33;;;;;;;1.65;0.40;;;11.60;99.90;;;;;;5074769;28;20502;-59
2022/12/24 11:27:29;;;;;;;1.30;0.47;;;11.60;99.90;;;;;;5074774;28;20515;-59
2022/12/24 11:30:28;;;;;;;3.42;0.50;;;11.50;99.90;;;;;;5073590;28;20515;-59
2022/12/24 11:33:22;;;;;;;2.17;0.40;;;11.60;99.90;;;;;;5053791;28;20522;-59
2022/12/24 11:36:02;;;;;;;3.17;0.40;;;11.70;99.90;;;;;;5057330;28;20470;-59
2022/12/24 11:38:33;;;;;;;1.42;0.50;;;11.70;99.90;;;;;;5053332;28;20456;-59
2022/12/24 11:41:10;;;;;;;1.95;0.50;;;11.70;99.90;;;;;;5052810;28;20908;-58
2022/12/24 11:43:45;;;;;;;1.85;0.40;;;11.70;99.90;;;;;;5053209;28;20529;-58
2022/12/24 11:46:31;;;;;;;1.60;0.40;;;11.80;99.90;;;;;;5052931;28;20457;-57
2022/12/24 11:49:13;;;;;;;2.00;0.50;;;11.90;99.90;;;;;;5041900;28;20452;-54
2022/12/24 11:51:46;;;;;;;1.52;0.40;;;11.90;99.90;;;;;;5051836;28;20535;-55
2022/12/24 11:54:19;;;;;;;1.70;0.40;;;12.00;99.90;;;;;;5054305;28;20429;-57
2022/12/24 11:56:51;;;;;;;2.75;0.50;;;12.10;99.90;;;;;;5055286;28;20433;-54
2022/12/24 11:59:23;;;;;;;1.45;0.50;;;12.10;99.90;;;;;;5055871;28;20421;-57
2022/12/24 12:01:58;;;;;;;3.03;0.50;;;12.10;99.90;;;;;;5053318;28;20545;-57
2022/12/24 12:04:30;;;;;;;5.00;0.40;;;12.20;99.90;;;;;;5053849;28;20565;-55
2022/12/24 12:07:01;;;;;;;1.60;0.50;;;12.30;99.90;;;;;;5054717;28;20440;-57
2022/12/24 12:09:33;;;;;;;3.55;0.90;;;12.30;99.90;;;;;;5054314;28;20888;-54
2022/12/24 12:12:02;;;;;;;2.80;0.40;;;12.30;99.90;;;;;;5042141;28;20436;-54
2022/12/24 12:14:36;;;;;;;2.60;0.50;;;12.30;99.90;;;;;;5052259;28;20529;-57
2022/12/24 12:17:12;;;;;;;2.00;0.40;;;12.40;99.90;;;;;;5055048;28;20520;-53
2022/12/24 12:19:45;;;;;;;2.75;0.50;;;12.40;99.90;;;;;;5053240;28;20453;-52
2022/12/24 12:22:24;;;;;;;2.40;0.60;;;12.50;99.90;;;;;;5053220;28;20531;-50
2022/12/24 12:24:55;;;;;;;1.20;0.50;;;12.40;99.90;;;;;;5055148;28;20458;-55
2022/12/24 12:27:30;;;;;;;2.35;0.50;;;12.50;99.90;;;;;;5056677;28;20422;-56
2022/12/24 12:30:03;;;;;;;2.40;0.50;;;12.60;99.90;;;;;;5078717;28;20515;-56
2022/12/24 12:32:41;;;;;;;1.60;0.50;;;12.70;99.90;;;;;;5084216;28;20451;-57
2022/12/24 12:35:19;;;;;;;1.30;0.50;;;12.70;99.90;;;;;;5088257;28;20459;-57
2022/12/24 12:37:51;;;;;;;1.30;0.50;;;12.60;99.90;;;;;;5073775;28;20439;-57
2022/12/24 12:40:21;;;;;;;2.47;0.40;;;12.60;99.90;;;;;;5083674;28;20512;-57
2022/12/24 12:42:59;;;;;;;1.58;0.50;;;12.50;99.90;;;;;;5079987;28;20424;-58
2022/12/24 12:45:38;;;;;;;2.50;0.40;;;12.60;99.90;;;;;;5073344;28;20514;-58
2022/12/24 12:48:22;;;;;;;2.30;0.50;;;12.60;99.90;;;;;;5073660;28;20514;-58
2022/12/24 12:50:54;;;;;;;2.63;0.50;;;12.60;99.90;;;;;;5073323;28;20521;-58
2022/12/24 12:53:50;;;;;;;2.83;0.40;;;12.50;99.90;;;;;;5074780;28;20519;-59
2022/12/24 12:56:29;;;;;;;2.58;0.40;;;12.50;99.90;;;;;;5074512;28;20510;-58
2022/12/24 12:59:02;;;;;;;2.13;0.40;;;12.50;99.90;;;;;;5074074;28;20731;-57
2022/12/24 13:01:41;;;;;;;2.30;0.40;;;12.40;99.90;;;;;;5073141;28;20518;-58
2022/12/24 13:04:44;;;;;;;1.30;0.50;;;12.40;99.90;;;;;;5074063;28;20434;-58
2022/12/24 13:07:51;;;;;;;4.00;0.88;;;12.50;99.90;;;;;;5073995;28;20481;-58
2022/12/24 13:10:56;;;;;;;3.45;0.80;;;12.50;99.90;;;;;;5074521;28;20474;-58
2022/12/24 13:14:05;;;;;;;2.60;0.40;;;12.60;99.90;;;;;;5069766;28;20515;-58
2022/12/24 13:16:59;;;;;;;2.90;0.50;;;12.50;99.90;;;;;;5075005;28;20471;-58